createdAt,value
2019-01-08T00:00:12.249Z,100830.10
2019-01-08T00:02:44.809Z,100816.74
2019-01-08T00:05:15.751Z,100807.17
2019-01-08T00:07:46.678Z,100803.07
2019-01-08T00:10:17.645Z,100792.09
2019-01-08T00:12:48.663Z,100790.67
2019-01-08T00:15:19.655Z,100773.78
2019-01-08T00:17:50.600Z,100766.23
2019-01-08T00:20:21.540Z,100755.27
2019-01-08T00:22:52.472Z,100755.27
2019-01-08T00:25:23.417Z,100746.67
2019-01-08T00:27:54.356Z,100739.14
2019-01-08T00:30:25.366Z,100731.41
2019-01-08T00:32:56.298Z,100724.63
2019-01-08T00:35:27.207Z,100713.66
2019-01-08T00:37:58.132Z,100711.84
2019-01-08T00:40:29.047Z,100701.73
2019-01-08T00:42:59.969Z,100701.82
2019-01-08T00:45:30.905Z,100706.20
2019-01-08T00:48:01.829Z,100683.10
2019-01-08T00:50:32.755Z,100676.41
2019-01-08T00:53:03.668Z,100676.02
2019-01-08T00:55:34.595Z,100669.72
2019-01-08T00:58:05.532Z,100658.44
2019-01-08T01:00:36.476Z,100650.31
2019-01-08T01:03:07.456Z,100636.19
2019-01-08T01:05:38.416Z,100633.42
2019-01-08T01:08:09.370Z,100619.95
2019-01-08T01:10:40.353Z,100612.31
2019-01-08T01:13:12.388Z,100602.85
2019-01-08T01:15:44.138Z,100603.70
2019-01-08T01:18:15.107Z,100588.15
2019-01-08T01:20:46.108Z,100580.88
2019-01-08T01:23:17.048Z,100569.02
2019-01-08T01:25:47.977Z,100562.72
2019-01-08T01:28:18.881Z,100557.06
2019-01-08T01:30:49.822Z,100550.55
2019-01-08T01:33:20.771Z,100543.38
2019-01-08T01:35:51.790Z,100536.28
2019-01-08T01:38:22.705Z,100523.45
2019-01-08T01:40:53.644Z,100515.20
2019-01-08T01:43:25.677Z,100503.66
2019-01-08T01:45:56.595Z,100501.52
2019-01-08T01:48:27.534Z,100497.67
2019-01-08T01:50:58.517Z,100488.68
2019-01-08T01:53:29.467Z,100474.72
2019-01-08T01:56:00.403Z,100464.44
2019-01-08T01:58:31.348Z,100459.35
2019-01-08T02:01:02.275Z,100448.92
2019-01-08T02:03:33.260Z,100445.54
2019-01-08T02:06:04.190Z,100431.79
2019-01-08T02:08:35.092Z,100429.64
2019-01-08T02:11:21.589Z,100428.05
2019-01-08T02:13:52.512Z,100414.93
2019-01-08T02:16:23.431Z,100405.34
2019-01-08T02:18:54.603Z,100397.31
2019-01-08T02:21:25.573Z,100385.05
2019-01-08T02:23:56.519Z,100381.55
2019-01-08T02:26:27.473Z,100375.83
2019-01-08T02:28:58.397Z,100367.28
2019-01-08T02:31:29.323Z,100354.42
2019-01-08T02:34:00.333Z,100349.80
2019-01-08T02:36:31.230Z,100338.95
2019-01-08T02:39:02.147Z,100331.07
2019-01-08T02:41:35.146Z,100318.06
2019-01-08T02:44:06.231Z,100312.84
2019-01-08T02:46:37.369Z,100300.44
2019-01-08T02:49:08.316Z,100288.64
2019-01-08T02:51:39.236Z,100280.49
2019-01-08T02:54:10.146Z,100279.75
2019-01-08T02:56:41.069Z,100269.55
2019-01-08T02:59:12.041Z,100265.06
2019-01-08T03:01:42.966Z,100258.11
2019-01-08T03:04:13.891Z,100247.77
2019-01-08T03:06:44.884Z,100243.39
2019-01-08T03:09:15.797Z,100234.16
2019-01-08T03:11:46.732Z,100217.36
2019-01-08T03:14:17.673Z,100211.40
2019-01-08T03:16:48.586Z,100199.85
2019-01-08T03:19:19.524Z,100196.22
2019-01-08T03:21:50.445Z,100188.44
2019-01-08T03:24:21.407Z,100182.71
2019-01-08T03:26:52.343Z,100173.95
2019-01-08T03:29:23.268Z,100164.23
2019-01-08T03:31:54.239Z,100162.03
2019-01-08T03:34:25.151Z,100156.80
2019-01-08T03:36:56.078Z,100146.09
2019-01-08T03:39:27.010Z,100131.48
2019-01-08T03:41:57.958Z,100135.14
2019-01-08T03:44:28.880Z,100126.38
2019-01-08T03:46:59.790Z,100116.39
2019-01-08T03:49:30.711Z,100101.54
2019-01-08T03:52:01.661Z,100102.75
2019-01-08T03:54:32.655Z,100086.08
2019-01-08T03:57:03.631Z,100090.09
2019-01-08T03:59:41.884Z,100077.92
2019-01-08T04:02:07.315Z,100073.66
2019-01-08T04:04:38.222Z,100069.51
2019-01-08T04:07:09.186Z,100067.68
2019-01-08T04:09:40.141Z,100058.31
2019-01-08T04:12:11.114Z,100053.20
2019-01-08T04:14:42.049Z,100056.48
2019-01-08T04:17:12.974Z,100041.88
2019-01-08T04:19:43.957Z,100027.03
2019-01-08T04:22:14.942Z,100030.44
2019-01-08T04:24:45.855Z,100020.33
2019-01-08T04:27:16.787Z,100018.39
2019-01-08T04:29:50.630Z,100011.57
2019-01-08T04:32:20.308Z,100001.22
2019-01-08T04:34:51.234Z,100001.22
2019-01-08T04:37:22.200Z,100006.10
2019-01-08T04:39:53.203Z,99996.00
2019-01-08T04:42:24.126Z,99984.06
2019-01-08T04:44:55.052Z,99975.91
2019-01-08T04:47:26.071Z,99973.09
2019-01-08T04:49:56.973Z,99969.31
2019-01-08T04:52:27.937Z,99960.69
2019-01-08T04:54:58.854Z,99957.52
2019-01-08T04:57:29.803Z,99953.02
2019-01-08T05:00:00.716Z,99945.10
2019-01-08T05:02:31.712Z,99948.16
2019-01-08T05:05:02.646Z,99939.75
2019-01-08T05:07:33.597Z,99934.77
2019-01-08T05:10:04.858Z,99929.28
2019-01-08T05:12:35.765Z,99923.33
2019-01-08T05:15:07.097Z,99926.98
2019-01-08T05:17:38.007Z,99914.45
2019-01-08T05:20:08.972Z,99904.11
2019-01-08T05:22:39.972Z,99903.75
2019-01-08T05:25:10.902Z,99900.97
2019-01-08T05:27:41.820Z,99900.85
2019-01-08T05:30:12.735Z,99889.91
2019-01-08T05:32:43.683Z,99883.23
2019-01-08T05:35:14.608Z,99885.77
2019-01-08T05:37:45.517Z,99878.58
2019-01-08T05:40:16.422Z,99879.09
2019-01-08T05:42:47.399Z,99868.25
2019-01-08T05:45:18.310Z,99865.34
2019-01-08T05:47:49.218Z,99855.73
2019-01-08T05:50:20.118Z,99860.36
2019-01-08T05:52:51.197Z,99857.58
2019-01-08T05:55:22.114Z,99850.16
2019-01-08T05:57:53.018Z,99854.58
2019-01-08T06:00:23.934Z,99844.84
2019-01-08T06:02:54.862Z,99835.98
2019-01-08T06:05:25.764Z,99833.44
2019-01-08T06:07:56.685Z,99835.77
2019-01-08T06:10:27.609Z,99822.66
2019-01-08T06:12:58.590Z,99817.69
2019-01-08T06:15:29.496Z,99817.21
2019-01-08T06:18:00.440Z,99802.85
2019-01-08T06:20:31.450Z,99799.94
2019-01-08T06:23:02.390Z,99796.67
2019-01-08T06:25:33.316Z,99786.70
2019-01-08T06:28:04.283Z,99789.74
2019-01-08T06:30:35.228Z,99781.61
2019-01-08T06:33:06.159Z,99771.93
2019-01-08T06:35:37.096Z,99783.07
2019-01-08T06:38:08.049Z,99776.02
2019-01-08T06:40:39.061Z,99772.73
2019-01-08T06:43:09.989Z,99770.05
2019-01-08T06:45:40.913Z,99759.61
2019-01-08T06:48:11.833Z,99754.25
2019-01-08T06:50:42.808Z,99756.31
2019-01-08T06:53:13.751Z,99749.63
2019-01-08T06:55:44.664Z,99749.27
2019-01-08T06:58:15.583Z,99742.68
2019-01-08T07:00:46.540Z,99735.14
2019-01-08T07:03:17.463Z,99738.91
2019-01-08T07:05:48.367Z,99731.83
2019-01-08T07:08:19.287Z,99733.73
2019-01-08T07:10:50.736Z,99740.33
2019-01-08T07:13:21.619Z,99740.78
2019-01-08T07:15:52.540Z,99738.22
2019-01-08T07:18:23.471Z,99733.73
2019-01-08T07:20:54.451Z,99722.02
2019-01-08T07:23:25.375Z,99724.34
2019-01-08T07:25:56.291Z,99715.08
2019-01-08T07:28:29.257Z,99713.70
2019-01-08T07:30:59.926Z,99704.66
2019-01-08T07:33:30.845Z,99704.27
2019-01-08T07:36:01.779Z,99698.63
2019-01-08T07:38:32.704Z,99695.45
2019-01-08T07:41:03.962Z,99692.02
2019-01-08T07:43:34.876Z,99688.00
2019-01-08T07:46:05.828Z,99677.38
2019-01-08T07:48:36.814Z,99676.00
2019-01-08T07:51:07.775Z,99671.27
2019-01-08T07:53:38.751Z,99671.98
2019-01-08T07:56:09.674Z,99665.16
2019-01-08T07:58:40.661Z,99662.70
2019-01-08T08:01:11.572Z,99664.40
2019-01-08T08:03:42.486Z,99650.87
2019-01-08T08:06:13.427Z,99644.31
2019-01-08T08:08:44.341Z,99649.58
2019-01-08T08:11:15.260Z,99644.98
2019-01-08T08:13:46.204Z,99640.83
2019-01-08T08:16:17.153Z,99635.11
2019-01-08T08:18:48.116Z,99633.23
2019-01-08T08:21:19.037Z,99632.66
2019-01-08T08:23:49.990Z,99617.87
2019-01-08T08:26:20.923Z,99617.10
2019-01-08T08:28:51.871Z,99623.44
2019-01-08T08:31:22.834Z,99619.55
2019-01-08T08:33:53.832Z,99610.20
2019-01-08T08:36:24.844Z,99602.66
2019-01-08T08:38:55.988Z,99595.81
2019-01-08T08:41:26.970Z,99591.22
2019-01-08T08:43:58.193Z,99599.55
2019-01-08T08:46:29.144Z,99587.75
2019-01-08T08:49:00.335Z,99591.41
2019-01-08T08:51:31.295Z,99584.49
2019-01-08T08:54:03.285Z,99582.59
2019-01-08T08:56:34.250Z,99578.86
2019-01-08T08:59:05.166Z,99576.04
2019-01-08T09:01:36.174Z,99572.02
2019-01-08T09:04:07.165Z,99565.31
2019-01-08T09:06:38.376Z,99561.42
2019-01-08T09:09:09.956Z,99550.20
2019-01-08T09:11:40.921Z,99553.09
2019-01-08T09:14:11.877Z,99535.59
2019-01-08T09:16:42.793Z,99543.83
2019-01-08T09:19:13.768Z,99535.97
2019-01-08T09:21:44.707Z,99530.03
2019-01-08T09:24:15.641Z,99525.00
2019-01-08T09:26:46.559Z,99511.64
2019-01-08T09:29:17.494Z,99508.07
2019-01-08T09:31:48.461Z,99502.31
2019-01-08T09:34:19.491Z,99499.13
2019-01-08T09:36:50.422Z,99493.06
2019-01-08T09:39:21.395Z,99488.98
2019-01-08T09:41:52.299Z,99483.95
2019-01-08T09:44:23.265Z,99479.28
2019-01-08T09:46:54.212Z,99475.60
2019-01-08T09:49:26.119Z,99466.30
2019-01-08T09:51:57.074Z,99461.72
2019-01-08T09:54:28.041Z,99457.20
2019-01-08T09:56:58.953Z,99449.73
2019-01-08T09:59:29.873Z,99445.21
2019-01-08T10:02:00.795Z,99442.83
2019-01-08T10:04:31.893Z,99440.94
2019-01-08T10:07:03.055Z,99438.89
2019-01-08T10:09:34.115Z,99431.28
2019-01-08T10:12:05.138Z,99428.95
2019-01-08T10:14:36.056Z,99427.26
2019-01-08T10:17:07.110Z,99418.91
2019-01-08T10:19:38.036Z,99414.63
2019-01-08T10:22:09.088Z,99412.69
2019-01-08T10:24:40.160Z,99409.02
2019-01-08T10:27:11.098Z,99399.71
2019-01-08T10:29:42.194Z,99399.27
2019-01-08T10:32:13.544Z,99392.16
2019-01-08T10:34:44.595Z,99387.48
2019-01-08T10:37:15.649Z,99387.48
2019-01-08T10:39:46.610Z,99384.35
2019-01-08T10:42:17.567Z,99376.45
2019-01-08T10:44:48.714Z,99365.02
2019-01-08T10:47:19.619Z,99361.34
2019-01-08T10:49:50.580Z,99360.14
2019-01-08T10:52:21.487Z,99360.00
2019-01-08T10:54:52.469Z,99349.21
2019-01-08T10:57:24.483Z,99348.52
2019-01-08T10:59:55.472Z,99331.77
2019-01-08T11:02:26.378Z,99323.30
2019-01-08T11:04:57.434Z,99319.03
2019-01-08T11:07:28.430Z,99317.54
2019-01-08T11:09:59.384Z,99315.01
2019-01-08T11:12:30.306Z,99306.80
2019-01-08T11:15:01.285Z,99300.39
2019-01-08T11:17:32.260Z,99299.94
2019-01-08T11:20:03.211Z,99295.00
2019-01-08T11:22:34.121Z,99278.52
2019-01-08T11:25:05.086Z,99272.88
2019-01-08T11:27:36.089Z,99266.97
2019-01-08T11:30:07.378Z,99256.30
2019-01-08T11:32:38.377Z,99247.78
2019-01-08T11:35:09.418Z,99249.32
2019-01-08T11:37:40.418Z,99237.27
2019-01-08T11:40:11.364Z,99237.88
2019-01-08T11:42:42.341Z,99234.44
2019-01-08T11:45:13.285Z,99229.23
2019-01-08T11:47:45.188Z,99210.77
2019-01-08T11:50:16.108Z,99216.10
2019-01-08T11:52:48.021Z,99202.98
2019-01-08T11:55:19.024Z,99195.61
2019-01-08T11:57:50.265Z,99190.24
2019-01-08T12:00:21.586Z,99182.66
2019-01-08T12:02:52.493Z,99179.25
2019-01-08T12:05:23.472Z,99172.01
2019-01-08T12:07:54.468Z,99176.13
2019-01-08T12:10:26.116Z,99171.19
2019-01-08T12:12:57.051Z,99164.45
2019-01-08T12:15:27.981Z,99164.76
2019-01-08T12:17:59.034Z,99153.80
2019-01-08T12:20:29.976Z,99149.05
2019-01-08T12:23:00.906Z,99149.73
2019-01-08T12:25:31.807Z,99140.34
2019-01-08T12:28:02.809Z,99141.68
2019-01-08T12:30:33.824Z,99124.39
2019-01-08T12:33:04.862Z,99124.58
2019-01-08T12:35:35.992Z,99115.84
2019-01-08T12:38:06.939Z,99117.52
2019-01-08T12:40:37.918Z,99101.23
2019-01-08T12:43:08.845Z,99097.89
2019-01-08T12:45:39.876Z,99093.87
2019-01-08T12:48:10.849Z,99089.16
2019-01-08T12:50:41.794Z,99085.47
2019-01-08T12:53:12.735Z,99079.95
2019-01-08T12:55:43.672Z,99081.79
2019-01-08T12:58:14.663Z,99066.03
2019-01-08T13:00:45.687Z,99061.84
2019-01-08T13:03:16.610Z,99059.66
2019-01-08T13:05:47.519Z,99060.00
2019-01-08T13:08:18.447Z,99051.27
2019-01-08T13:10:49.442Z,99056.29
2019-01-08T13:13:20.452Z,99051.11
2019-01-08T13:15:51.499Z,99044.38
2019-01-08T13:18:22.442Z,99042.53
2019-01-08T13:20:53.375Z,99037.98
2019-01-08T13:23:24.329Z,99028.09
2019-01-08T13:25:55.294Z,99028.59
2019-01-08T13:28:26.331Z,99026.09
2019-01-08T13:30:57.342Z,99022.41
2019-01-08T13:33:28.352Z,99012.67
2019-01-08T13:35:59.385Z,99006.64
2019-01-08T13:38:30.469Z,99007.80
2019-01-08T13:41:01.469Z,99015.70
2019-01-08T13:43:32.575Z,99005.80
2019-01-08T13:46:04.700Z,99000.77
2019-01-08T13:48:35.961Z,98999.09
2019-01-08T13:51:07.214Z,98991.88
2019-01-08T13:53:38.207Z,98995.56
2019-01-08T13:56:09.347Z,98992.05
2019-01-08T13:58:40.682Z,98981.28
2019-01-08T14:01:11.776Z,98982.63
2019-01-08T14:03:42.844Z,98975.70
2019-01-08T14:06:13.883Z,98967.31
2019-01-08T14:08:44.969Z,98973.34
2019-01-08T14:11:16.049Z,98967.80
2019-01-08T14:13:47.161Z,98960.40
2019-01-08T14:16:18.305Z,98962.23
2019-01-08T14:18:49.536Z,98953.48
2019-01-08T14:21:20.536Z,98959.69
2019-01-08T14:23:51.607Z,98959.19
2019-01-08T14:26:22.608Z,98954.14
2019-01-08T14:28:53.711Z,98945.25
2019-01-08T14:31:24.720Z,98948.94
2019-01-08T14:33:55.744Z,98940.55
2019-01-08T14:36:26.718Z,98945.04
2019-01-08T14:38:57.714Z,98954.05
2019-01-08T14:41:28.666Z,98942.64
2019-01-08T14:43:59.644Z,98941.09
2019-01-08T14:46:30.590Z,98936.03
2019-01-08T14:49:01.584Z,98935.51
2019-01-08T14:51:32.584Z,98928.62
2019-01-08T14:54:04.613Z,98923.07
2019-01-08T14:56:35.565Z,98923.88
2019-01-08T14:59:06.540Z,98925.38
2019-01-08T15:01:37.488Z,98918.14
2019-01-08T15:04:08.529Z,98916.95
2019-01-08T15:06:39.619Z,98910.78
2019-01-08T15:09:10.646Z,98907.77
2019-01-08T15:11:41.687Z,98906.58
2019-01-08T15:14:12.600Z,98896.89
2019-01-08T15:16:43.742Z,98903.90
2019-01-08T15:19:14.657Z,98902.53
2019-01-08T15:21:45.674Z,98904.55
2019-01-08T15:24:16.585Z,98893.02
2019-01-08T15:26:47.614Z,98885.63
2019-01-08T15:29:18.594Z,98882.80
2019-01-08T15:31:49.512Z,98881.83
2019-01-08T15:34:20.538Z,98878.80
2019-01-08T15:36:51.635Z,98876.97
2019-01-08T15:39:22.620Z,98874.75
2019-01-08T15:41:53.537Z,98863.72
2019-01-08T15:44:24.511Z,98868.92
2019-01-08T15:46:56.523Z,98870.58
2019-01-08T15:49:27.557Z,98866.37
2019-01-08T15:51:58.499Z,98863.03
2019-01-08T15:54:29.493Z,98859.70
2019-01-08T15:57:00.533Z,98859.54
2019-01-08T15:59:31.472Z,98853.67
2019-01-08T16:02:02.600Z,98856.89
2019-01-08T16:04:33.626Z,98852.36
2019-01-08T16:07:05.667Z,98849.68
2019-01-08T16:09:36.614Z,98849.84
2019-01-08T16:12:07.722Z,98852.08
2019-01-08T16:14:38.672Z,98852.55
2019-01-08T16:17:17.055Z,98846.28
2019-01-08T16:19:48.046Z,98846.94
2019-01-08T16:22:18.971Z,98846.08
2019-01-08T16:24:49.941Z,98850.75
2019-01-08T16:27:20.875Z,98847.08
2019-01-08T16:29:51.877Z,98840.21
2019-01-08T16:32:22.776Z,98843.23
2019-01-08T16:34:53.747Z,98845.09
2019-01-08T16:37:25.843Z,98841.73
2019-01-08T16:39:56.795Z,98848.30
2019-01-08T16:42:27.702Z,98843.95
2019-01-08T16:44:58.899Z,98844.64
2019-01-08T16:47:29.818Z,98844.12
2019-01-08T16:50:00.810Z,98844.98
2019-01-08T16:52:31.876Z,98840.31
2019-01-08T16:55:02.828Z,98842.31
2019-01-08T16:57:33.788Z,98848.34
2019-01-08T17:00:05.840Z,98846.14
2019-01-08T17:02:36.857Z,98842.95
2019-01-08T17:05:07.859Z,98842.44
2019-01-08T17:07:38.946Z,98841.11
2019-01-08T17:10:09.923Z,98834.23
2019-01-08T17:12:40.889Z,98837.41
2019-01-08T17:15:11.873Z,98835.73
2019-01-08T17:17:42.795Z,98834.55
2019-01-08T17:20:13.840Z,98833.89
2019-01-08T17:22:44.814Z,98830.70
2019-01-08T17:25:16.826Z,98831.06
2019-01-08T17:27:47.834Z,98818.31
2019-01-08T17:30:18.816Z,98821.18
2019-01-08T17:32:49.849Z,98816.97
2019-01-08T17:35:20.849Z,98815.13
2019-01-08T17:37:51.845Z,98821.68
2019-01-08T17:40:22.851Z,98820.36
2019-01-08T17:42:53.891Z,98816.31
2019-01-08T17:45:24.942Z,98816.49
2019-01-08T17:47:56.158Z,98809.77
2019-01-08T17:50:27.145Z,98806.92
2019-01-08T17:52:58.279Z,98809.12
2019-01-08T17:55:29.276Z,98809.12
2019-01-08T17:58:40.790Z,98812.83
2019-01-08T18:01:29.939Z,98807.62
2019-01-08T18:04:00.895Z,98810.97
2019-01-08T18:06:31.935Z,98811.13
2019-01-08T18:09:05.777Z,98813.81
2019-01-08T18:11:36.986Z,98810.97
2019-01-08T18:14:08.016Z,98812.98
2019-01-08T18:16:39.314Z,98811.14
2019-01-08T18:19:10.622Z,98818.69
2019-01-08T18:21:41.671Z,98821.70
2019-01-08T18:24:12.841Z,98827.38
2019-01-08T18:26:43.940Z,98827.38
2019-01-08T18:29:15.925Z,98828.20
2019-01-08T18:31:46.998Z,98836.37
2019-01-08T18:34:18.012Z,98837.37
2019-01-08T18:36:49.018Z,98833.51
2019-01-08T18:39:20.089Z,98843.05
2019-01-08T18:41:51.057Z,98839.69
2019-01-08T18:44:22.045Z,98844.55
2019-01-08T18:46:53.136Z,98846.39
2019-01-08T18:49:24.208Z,98838.33
2019-01-08T18:51:55.205Z,98842.87
2019-01-08T18:54:28.103Z,98838.66
2019-01-08T18:56:58.788Z,98846.37
2019-01-08T18:59:30.797Z,98837.14
2019-01-08T19:02:01.741Z,98843.95
2019-01-08T19:04:32.781Z,98849.66
2019-01-08T19:07:03.739Z,98847.63
2019-01-08T19:09:36.505Z,98842.59
2019-01-08T19:12:19.469Z,98840.91
2019-01-08T19:14:51.449Z,98843.90
2019-01-08T19:17:22.450Z,98838.85
2019-01-08T19:19:53.367Z,98843.53
2019-01-08T19:22:24.363Z,98847.08
2019-01-08T19:24:55.346Z,98842.06
2019-01-08T19:27:27.351Z,98847.89
2019-01-08T19:29:58.267Z,98842.32
2019-01-08T19:32:29.254Z,98849.55
2019-01-08T19:35:00.230Z,98851.91
2019-01-08T19:37:31.252Z,98852.26
2019-01-08T19:40:02.199Z,98849.89
2019-01-08T19:42:33.248Z,98847.47
2019-01-08T19:45:04.329Z,98854.26
2019-01-08T19:47:35.490Z,98851.08
2019-01-08T19:50:09.006Z,98856.72
2019-01-08T19:52:40.261Z,98856.38
2019-01-08T19:55:11.263Z,98858.98
2019-01-08T19:57:42.221Z,98858.56
2019-01-08T20:00:13.820Z,98853.17
2019-01-08T20:02:44.977Z,98855.81
2019-01-08T20:05:17.076Z,98853.63
2019-01-08T20:07:48.222Z,98854.52
2019-01-08T20:10:19.234Z,98861.24
2019-01-08T20:12:50.302Z,98866.72
2019-01-08T20:15:21.213Z,98871.41
2019-01-08T20:17:52.236Z,98875.80
2019-01-08T20:20:23.237Z,98868.17
2019-01-08T20:22:54.203Z,98874.43
2019-01-08T20:25:25.189Z,98874.69
2019-01-08T20:27:56.240Z,98881.67
2019-01-08T20:30:27.266Z,98880.63
2019-01-08T20:32:58.298Z,98879.94
2019-01-08T20:35:29.248Z,98869.69
2019-01-08T20:38:00.264Z,98877.86
2019-01-08T20:40:31.210Z,98869.64
2019-01-08T20:43:02.212Z,98873.30
2019-01-08T20:45:33.256Z,98872.80
2019-01-08T20:48:04.432Z,98878.90
2019-01-08T20:50:35.473Z,98875.53
2019-01-08T20:53:06.467Z,98875.03
2019-01-08T20:55:37.597Z,98876.47
2019-01-08T20:58:08.639Z,98873.95
2019-01-08T21:00:39.945Z,98877.61
2019-01-08T21:03:11.045Z,98877.95
2019-01-08T21:05:42.137Z,98872.31
2019-01-08T21:08:13.212Z,98877.02
2019-01-08T21:10:44.229Z,98879.84
2019-01-08T21:13:15.168Z,98879.20
2019-01-08T21:15:46.163Z,98877.66
2019-01-08T21:18:17.133Z,98880.14
2019-01-08T21:20:48.593Z,98866.91
2019-01-08T21:23:19.667Z,98873.25
2019-01-08T21:25:50.602Z,98874.24
2019-01-08T21:28:21.606Z,98885.59
2019-01-08T21:30:52.541Z,98882.91
2019-01-08T21:33:23.500Z,98870.73
2019-01-08T21:35:54.518Z,98882.77
2019-01-08T21:38:25.525Z,98885.94
2019-01-08T21:40:56.645Z,98872.41
2019-01-08T21:43:27.675Z,98885.59
2019-01-08T21:45:58.614Z,98883.11
2019-01-08T21:48:29.647Z,98881.92
2019-01-08T21:51:00.591Z,98883.06
2019-01-08T21:53:32.547Z,98879.25
2019-01-08T21:56:03.613Z,98882.22
2019-01-08T21:58:34.638Z,98881.28
2019-01-08T22:01:05.623Z,98883.56
2019-01-08T22:03:36.559Z,98878.20
2019-01-08T22:06:07.555Z,98891.53
2019-01-08T22:08:39.667Z,98881.18
2019-01-08T22:11:10.643Z,98890.34
2019-01-08T22:13:41.580Z,98883.56
2019-01-08T22:16:12.536Z,98890.09
2019-01-08T22:18:43.532Z,98890.89
2019-01-08T22:21:27.902Z,98886.88
2019-01-08T22:23:58.925Z,98891.73
2019-01-08T22:26:29.902Z,98887.22
2019-01-08T22:29:00.893Z,98890.94
2019-01-08T22:31:31.928Z,98890.39
2019-01-08T22:34:02.935Z,98886.92
2019-01-08T22:36:33.953Z,98883.70
2019-01-08T22:39:05.623Z,98889.05
2019-01-08T22:41:37.651Z,98884.39
2019-01-08T22:44:08.608Z,98886.08
2019-01-08T22:46:39.600Z,98885.73
2019-01-08T22:49:10.561Z,98886.19
2019-01-08T22:51:41.491Z,98890.59
2019-01-08T22:54:12.403Z,98888.41
2019-01-08T22:56:44.561Z,98894.84
2019-01-08T22:59:15.536Z,98892.84
2019-01-08T23:01:51.541Z,98885.66
2019-01-08T23:04:23.820Z,98885.81
2019-01-08T23:07:07.056Z,98885.12
2019-01-08T23:09:39.155Z,98881.75
2019-01-08T23:12:11.822Z,98886.70
2019-01-08T23:14:43.981Z,98887.89
2019-01-08T23:17:16.382Z,98887.39
2019-01-08T23:19:50.130Z,98886.00
2019-01-08T23:22:27.143Z,98886.50
2019-01-08T23:24:58.140Z,98897.69
2019-01-08T23:27:29.189Z,98888.77
2019-01-08T23:30:00.088Z,98893.13
2019-01-08T23:32:31.162Z,98893.63
2019-01-08T23:35:02.108Z,98898.33
2019-01-08T23:37:33.142Z,98892.44
2019-01-08T23:40:04.178Z,98895.41
2019-01-08T23:42:35.175Z,98898.56
2019-01-08T23:45:07.025Z,98899.61
2019-01-08T23:47:38.030Z,98895.69
2019-01-08T23:50:09.126Z,98897.81
2019-01-08T23:52:56.753Z,98898.02
2019-01-08T23:55:28.148Z,98900.64
2019-01-08T23:57:59.242Z,98894.36
